Time;durP1;ratioP1;P1;durP2;ratioP2;P2;SDS_P1;SDS_P2;PMS_P1;PMS_P2;Temp;Humidity;BMP_temperature;BMP_pressure;BME280_temperature;BME280_humidity;BME280_pressure;Samples;Min_cycle;Max_cycle;Signal;HPM_P1;HPM_P2
2022/07/01 00:01:36;;;;;;;3.45;0.50;;;;;;;;;;4982648;28;20430;-74
2022/07/01 00:04:02;;;;;;;1.17;0.45;;;;;;;;;;4992024;28;20026;-74
2022/07/01 00:06:28;;;;;;;4.30;0.70;;;;;;;;;;4992647;28;20026;-74
2022/07/01 00:08:55;;;;;;;3.03;0.40;;;;;;;;;;4991516;28;20041;-74
2022/07/01 00:11:21;;;;;;;2.35;0.30;;;;;;;;;;4987968;28;20058;-74
2022/07/01 00:13:47;;;;;;;1.45;0.43;;;;;;;;;;4990598;28;20037;-74
2022/07/01 00:16:13;;;;;;;1.77;0.43;;;;;;;;;;4986258;28;20031;-73
2022/07/01 00:18:39;;;;;;;3.30;0.57;;;;;;;;;;4989265;28;20045;-73
2022/07/01 00:21:05;;;;;;;3.00;0.40;;;;;;;;;;4975108;28;20026;-73
2022/07/01 00:23:31;;;;;;;1.55;0.20;;;;;;;;;;4991523;28;20042;-74
2022/07/01 00:25:57;;;;;;;1.15;0.30;;;;;;;;;;4994309;28;20026;-74
2022/07/01 00:28:23;;;;;;;3.10;0.50;;;;;;;;;;4974139;28;20434;-74
2022/07/01 00:30:49;;;;;;;1.90;0.60;;;;;;;;;;4989682;28;20826;-74
2022/07/01 00:33:15;;;;;;;2.47;0.40;;;;;;;;;;4991811;28;20161;-74
2022/07/01 00:35:41;;;;;;;2.78;0.60;;;;;;;;;;4992247;28;20042;-74
2022/07/01 00:38:07;;;;;;;0.90;0.45;;;;;;;;;;4990288;28;20049;-74
2022/07/01 00:40:33;;;;;;;1.88;0.32;;;;;;;;;;4992121;28;20026;-74
2022/07/01 00:42:59;;;;;;;1.02;0.50;;;;;;;;;;4991590;28;20153;-74
2022/07/01 00:45:25;;;;;;;1.90;0.63;;;;;;;;;;4989163;28;20117;-74
2022/07/01 00:47:51;;;;;;;1.13;0.60;;;;;;;;;;4983046;28;20395;-74
2022/07/01 00:50:17;;;;;;;0.50;0.50;;;;;;;;;;4992999;28;20106;-74
2022/07/01 00:52:44;;;;;;;1.33;0.40;;;;;;;;;;4990148;28;20050;-74
2022/07/01 00:55:12;;;;;;;1.42;0.45;;;;;;;;;;4990585;28;20045;-74
2022/07/01 00:57:39;;;;;;;1.10;0.65;;;;;;;;;;4987937;28;20030;-74
2022/07/01 01:00:09;;;;;;;1.40;1.05;;;;;;;;;;4991862;28;20467;-74
2022/07/01 01:02:35;;;;;;;1.85;0.60;;;;;;;;;;4986394;28;20041;-74
2022/07/01 01:05:02;;;;;;;1.35;0.50;;;;;;;;;;4990933;28;20045;-75
2022/07/01 01:07:29;;;;;;;0.93;0.70;;;;;;;;;;4990563;28;20038;-74
2022/07/01 01:09:55;;;;;;;3.83;0.70;;;;;;;;;;4991351;28;20046;-74
2022/07/01 01:12:22;;;;;;;1.33;0.73;;;;;;;;;;4986046;28;20466;-74
2022/07/01 01:14:49;;;;;;;1.45;0.60;;;;;;;;;;4990845;28;20061;-74
2022/07/01 01:17:15;;;;;;;1.40;0.80;;;;;;;;;;4978463;28;20413;-74
2022/07/01 01:19:42;;;;;;;3.65;0.60;;;;;;;;;;4981832;28;20066;-74
2022/07/01 01:22:08;;;;;;;1.10;0.68;;;;;;;;;;4991857;28;20077;-73
2022/07/01 01:24:36;;;;;;;1.75;0.80;;;;;;;;;;4990535;28;20030;-73
2022/07/01 01:27:02;;;;;;;1.70;0.63;;;;;;;;;;4992825;28;20023;-74
2022/07/01 01:29:28;;;;;;;2.78;0.73;;;;;;;;;;4985902;28;20105;-73
2022/07/01 01:31:54;;;;;;;1.98;0.75;;;;;;;;;;4989512;28;20113;-75
2022/07/01 01:34:20;;;;;;;1.38;0.70;;;;;;;;;;4991282;28;20035;-73
2022/07/01 01:36:46;;;;;;;5.15;0.88;;;;;;;;;;4989230;28;20049;-74
2022/07/01 01:39:15;;;;;;;0.80;0.60;;;;;;;;;;4992083;28;20038;-76
2022/07/01 01:41:41;;;;;;;3.85;0.77;;;;;;;;;;4990634;28;20042;-74
2022/07/01 01:44:07;;;;;;;3.67;0.75;;;;;;;;;;4990478;28;20157;-74
2022/07/01 01:46:33;;;;;;;2.92;0.73;;;;;;;;;;4979640;28;20035;-73
2022/07/01 01:48:59;;;;;;;2.85;0.77;;;;;;;;;;4993588;28;20026;-73
2022/07/01 01:51:25;;;;;;;5.25;1.00;;;;;;;;;;4990840;28;20035;-73
2022/07/01 01:53:51;;;;;;;2.03;0.68;;;;;;;;;;4989059;28;20030;-74
2022/07/01 01:56:17;;;;;;;1.98;0.70;;;;;;;;;;4992262;28;20093;-73
2022/07/01 01:58:44;;;;;;;2.17;0.90;;;;;;;;;;4990795;28;20442;-73
2022/07/01 02:01:10;;;;;;;2.10;0.80;;;;;;;;;;4981311;28;20034;-76
2022/07/01 02:03:37;;;;;;;2.60;0.98;;;;;;;;;;4987919;28;20049;-74
2022/07/01 02:06:04;;;;;;;6.32;1.33;;;;;;;;;;4973674;28;20050;-75
2022/07/01 02:08:30;;;;;;;3.83;1.30;;;;;;;;;;4991130;28;20034;-74
2022/07/01 02:10:56;;;;;;;4.35;1.10;;;;;;;;;;4977199;28;20031;-74
2022/07/01 02:13:22;;;;;;;3.65;1.38;;;;;;;;;;4985849;28;20050;-73
2022/07/01 02:15:49;;;;;;;2.47;1.27;;;;;;;;;;4984895;28;20035;-74
2022/07/01 02:18:15;;;;;;;5.00;1.80;;;;;;;;;;4989423;28;20030;-74
2022/07/01 02:20:41;;;;;;;4.65;1.38;;;;;;;;;;4991443;28;20044;-73
2022/07/01 02:23:08;;;;;;;5.43;1.50;;;;;;;;;;4988464;28;20030;-73
2022/07/01 02:25:34;;;;;;;4.97;1.55;;;;;;;;;;4992103;28;20030;-73
2022/07/01 02:28:00;;;;;;;2.80;1.50;;;;;;;;;;4987929;28;20556;-73
2022/07/01 02:30:26;;;;;;;2.10;1.33;;;;;;;;;;4958467;28;20132;-73
2022/07/01 02:32:52;;;;;;;5.32;1.75;;;;;;;;;;4987679;28;20046;-74
2022/07/01 02:35:18;;;;;;;3.45;1.65;;;;;;;;;;4970742;28;20026;-73
2022/07/01 02:37:44;;;;;;;4.80;1.70;;;;;;;;;;4986709;28;20042;-73
2022/07/01 02:40:12;;;;;;;3.50;1.88;;;;;;;;;;4991419;28;20041;-73
2022/07/01 02:42:38;;;;;;;2.40;1.70;;;;;;;;;;5004271;28;20037;-73
2022/07/01 02:45:05;;;;;;;5.63;1.98;;;;;;;;;;4988952;28;20030;-73
2022/07/01 02:47:38;;;;;;;2.47;1.60;;;;;;;;;;4989863;28;20553;-73
2022/07/01 02:50:05;;;;;;;4.78;1.80;;;;;;;;;;4971066;28;20054;-74
2022/07/01 02:52:34;;;;;;;3.67;1.80;;;;;;;;;;4973136;28;20037;-74
2022/07/01 02:55:00;;;;;;;5.13;1.45;;;;;;;;;;4989057;28;20065;-73
2022/07/01 02:57:26;;;;;;;4.40;1.88;;;;;;;;;;4956224;28;20501;-73
2022/07/01 02:59:52;;;;;;;9.88;1.70;;;;;;;;;;4989476;28;20541;-73
2022/07/01 03:02:19;;;;;;;4.72;1.40;;;;;;;;;;4986196;28;20114;-76
2022/07/01 03:04:45;;;;;;;2.58;1.65;;;;;;;;;;4990445;28;20564;-75
2022/07/01 03:07:11;;;;;;;3.85;1.85;;;;;;;;;;4989015;28;20081;-73
2022/07/01 03:09:39;;;;;;;6.57;1.90;;;;;;;;;;4986045;28;20058;-75
2022/07/01 03:12:24;;;;;;;2.53;1.52;;;;;;;;;;4988214;28;20078;-74
2022/07/01 03:14:51;;;;;;;3.40;1.70;;;;;;;;;;4988703;28;20035;-73
2022/07/01 03:17:17;;;;;;;2.25;1.88;;;;;;;;;;4987534;28;20038;-73
2022/07/01 03:19:43;;;;;;;6.18;2.80;;;;;;;;;;4992228;28;20027;-74
2022/07/01 03:22:09;;;;;;;3.22;1.77;;;;;;;;;;4995411;28;20429;-75
2022/07/01 03:24:35;;;;;;;5.65;2.05;;;;;;;;;;4990450;28;20446;-76
2022/07/01 03:27:01;;;;;;;4.35;2.00;;;;;;;;;;4993115;28;20065;-72
2022/07/01 03:29:27;;;;;;;3.10;1.98;;;;;;;;;;4990012;28;20117;-73
2022/07/01 03:31:53;;;;;;;3.42;2.38;;;;;;;;;;4980696;28;20070;-73
2022/07/01 03:34:19;;;;;;;5.75;2.55;;;;;;;;;;4991352;28;20038;-73
2022/07/01 03:36:45;;;;;;;4.95;2.85;;;;;;;;;;4984554;28;20039;-73
2022/07/01 03:39:12;;;;;;;5.30;2.80;;;;;;;;;;4992314;28;20042;-72
2022/07/01 03:41:38;;;;;;;4.63;2.95;;;;;;;;;;4992997;28;20389;-74
2022/07/01 03:44:05;;;;;;;7.50;3.10;;;;;;;;;;4993924;28;20031;-73
2022/07/01 03:46:31;;;;;;;7.57;3.42;;;;;;;;;;4988546;28;20030;-73
2022/07/01 03:48:58;;;;;;;7.65;3.47;;;;;;;;;;4994749;28;20033;-72
2022/07/01 03:51:24;;;;;;;5.68;3.15;;;;;;;;;;4991858;28;20072;-73
2022/07/01 03:56:34;;;;;;;7.30;3.75;;;;;;;;;;4992621;28;20072;-74
2022/07/01 03:59:00;;;;;;;5.95;3.58;;;;;;;;;;4974938;28;20050;-73
2022/07/01 04:01:26;;;;;;;7.38;3.80;;;;;;;;;;4982239;28;20045;-73
2022/07/01 04:03:52;;;;;;;8.63;3.30;;;;;;;;;;4988868;28;20038;-73
2022/07/01 04:06:18;;;;;;;8.63;4.32;;;;;;;;;;4990887;28;20034;-73
2022/07/01 04:08:46;;;;;;;7.97;3.50;;;;;;;;;;4993250;28;20085;-73
2022/07/01 04:11:12;;;;;;;7.75;3.22;;;;;;;;;;4990155;28;20518;-73
2022/07/01 04:13:40;;;;;;;11.65;3.80;;;;;;;;;;4985602;28;20113;-73
2022/07/01 04:16:06;;;;;;;6.45;3.42;;;;;;;;;;4980268;28;20413;-74
2022/07/01 04:18:32;;;;;;;7.65;4.38;;;;;;;;;;4968003;28;20034;-73
2022/07/01 04:23:43;;;;;;;10.07;3.53;;;;;;;;;;4990489;28;20033;-73
2022/07/01 04:26:09;;;;;;;6.07;2.83;;;;;;;;;;4982757;28;20039;-73
2022/07/01 04:28:35;;;;;;;12.23;5.65;;;;;;;;;;4987911;28;20030;-74
2022/07/01 04:31:02;;;;;;;4.97;3.58;;;;;;;;;;4991722;28;20026;-73
2022/07/01 04:33:28;;;;;;;8.70;2.90;;;;;;;;;;4986338;28;20018;-73
2022/07/01 04:35:53;;;;;;;9.35;2.92;;;;;;;;;;4987131;28;20034;-74
2022/07/01 04:38:19;;;;;;;9.98;3.13;;;;;;;;;;4991659;28;20053;-74
2022/07/01 04:43:41;;;;;;;6.53;2.85;;;;;;;;;;4931562;28;20111;-73
2022/07/01 04:46:07;;;;;;;7.43;3.00;;;;;;;;;;4980682;28;20165;-73
2022/07/01 04:48:33;;;;;;;11.05;3.33;;;;;;;;;;4975357;28;20093;-72
2022/07/01 04:50:59;;;;;;;5.88;2.63;;;;;;;;;;4983649;28;20110;-74
2022/07/01 04:53:25;;;;;;;4.78;2.53;;;;;;;;;;4983376;28;20038;-75
2022/07/01 04:55:51;;;;;;;8.82;2.90;;;;;;;;;;4984818;28;20176;-76
2022/07/01 04:58:17;;;;;;;9.93;2.92;;;;;;;;;;4987083;28;20046;-74
2022/07/01 05:00:43;;;;;;;9.57;3.70;;;;;;;;;;4985360;28;20391;-74
2022/07/01 05:03:09;;;;;;;6.60;2.97;;;;;;;;;;4983770;28;20030;-74
2022/07/01 05:05:35;;;;;;;6.30;2.55;;;;;;;;;;4989350;28;20026;-74
2022/07/01 05:08:02;;;;;;;4.85;2.90;;;;;;;;;;4986992;28;20046;-74
2022/07/01 05:10:28;;;;;;;8.90;2.80;;;;;;;;;;4989591;28;20047;-74
2022/07/01 05:12:55;;;;;;;7.70;3.40;;;;;;;;;;4989235;28;20050;-74
2022/07/01 05:15:21;;;;;;;6.28;4.03;;;;;;;;;;4986662;28;20042;-75
2022/07/01 05:23:16;;;;;;;10.00;5.10;;;;;;;;;;4987785;28;20060;-73
2022/07/01 05:25:42;;;;;;;12.50;5.55;;;;;;;;;;5000793;28;20474;-74
2022/07/01 05:28:08;;;;;;;12.05;5.68;;;;;;;;;;4987268;28;20038;-73
2022/07/01 05:30:34;;;;;;;9.05;6.13;;;;;;;;;;4985728;28;20030;-74
2022/07/01 05:33:00;;;;;;;13.88;6.57;;;;;;;;;;4986421;28;20045;-75
2022/07/01 05:35:26;;;;;;;17.55;8.95;;;;;;;;;;4986141;28;20030;-71
2022/07/01 05:37:52;;;;;;;40.53;27.95;;;;;;;;;;4984762;28;20118;-74
2022/07/01 05:40:18;;;;;;;19.00;12.90;;;;;;;;;;4986971;28;20524;-70
2022/07/01 05:42:44;;;;;;;15.80;10.68;;;;;;;;;;4984935;28;20039;-71
2022/07/01 05:45:10;;;;;;;18.58;11.23;;;;;;;;;;4972934;28;20394;-71
2022/07/01 05:47:36;;;;;;;15.98;10.55;;;;;;;;;;4985826;28;20041;-71
2022/07/01 05:50:02;;;;;;;19.33;11.77;;;;;;;;;;4991267;28;20026;-71
2022/07/01 05:52:28;;;;;;;18.90;12.32;;;;;;;;;;4986897;28;20041;-71
2022/07/01 05:54:55;;;;;;;20.27;12.00;;;;;;;;;;4992528;28;20030;-73
2022/07/01 05:57:21;;;;;;;17.08;12.52;;;;;;;;;;4993071;28;20105;-71
2022/07/01 05:59:47;;;;;;;16.52;12.88;;;;;;;;;;4987831;28;20034;-71
2022/07/01 06:02:13;;;;;;;17.33;13.30;;;;;;;;;;4976013;28;20035;-70
2022/07/01 06:04:39;;;;;;;15.68;12.07;;;;;;;;;;4985946;28;20098;-71
2022/07/01 06:07:05;;;;;;;18.08;12.68;;;;;;;;;;4989752;28;20390;-71
2022/07/01 06:09:31;;;;;;;19.98;12.20;;;;;;;;;;4980420;28;20038;-71
2022/07/01 06:11:57;;;;;;;24.67;14.25;;;;;;;;;;4991584;28;20185;-71
2022/07/01 06:14:23;;;;;;;24.23;15.13;;;;;;;;;;4990064;28;20482;-71
2022/07/01 06:16:49;;;;;;;18.00;13.23;;;;;;;;;;4974454;28;20034;-71
2022/07/01 06:19:15;;;;;;;19.52;12.15;;;;;;;;;;4993155;28;20034;-70
2022/07/01 06:21:41;;;;;;;18.50;12.80;;;;;;;;;;4992597;28;20030;-71
2022/07/01 06:24:07;;;;;;;21.25;14.77;;;;;;;;;;4988871;28;20105;-71
2022/07/01 06:26:33;;;;;;;28.52;15.00;;;;;;;;;;4991537;28;20072;-71
2022/07/01 06:28:59;;;;;;;21.17;13.43;;;;;;;;;;4991681;28;20034;-72
2022/07/01 06:31:25;;;;;;;24.38;15.30;;;;;;;;;;4981636;28;20086;-71
2022/07/01 06:33:51;;;;;;;22.02;14.18;;;;;;;;;;4975488;28;20033;-71
2022/07/01 06:36:17;;;;;;;21.27;14.45;;;;;;;;;;4969814;28;20174;-70
2022/07/01 06:38:43;;;;;;;22.08;14.82;;;;;;;;;;4992032;28;20466;-71
2022/07/01 06:41:27;;;;;;;21.27;12.52;;;;;;;;;;4990005;28;20038;-71
2022/07/01 06:43:54;;;;;;;19.80;13.70;;;;;;;;;;4973115;28;20066;-72
2022/07/01 06:46:20;;;;;;;22.58;16.05;;;;;;;;;;4987993;28;20062;-71
2022/07/01 06:48:46;;;;;;;20.83;15.02;;;;;;;;;;4973756;28;20521;-71
2022/07/01 06:51:12;;;;;;;20.10;15.20;;;;;;;;;;4976392;28;20105;-71
2022/07/01 06:53:39;;;;;;;18.83;14.20;;;;;;;;;;4992940;28;20054;-71
2022/07/01 06:56:05;;;;;;;21.35;14.73;;;;;;;;;;4991387;28;20034;-71
2022/07/01 06:58:31;;;;;;;21.80;15.27;;;;;;;;;;4991251;28;20493;-72
2022/07/01 07:00:58;;;;;;;22.23;15.43;;;;;;;;;;4985640;28;20039;-71
2022/07/01 07:03:24;;;;;;;21.92;13.93;;;;;;;;;;4955618;28;20121;-71
2022/07/01 07:05:50;;;;;;;22.08;15.00;;;;;;;;;;4985396;28;20034;-71
2022/07/01 07:08:16;;;;;;;19.20;13.63;;;;;;;;;;4991164;28;20112;-71
2022/07/01 07:10:42;;;;;;;17.40;14.43;;;;;;;;;;4991925;28;20082;-71
2022/07/01 07:13:08;;;;;;;25.38;14.05;;;;;;;;;;4972834;28;20520;-71
2022/07/01 07:15:34;;;;;;;18.23;14.60;;;;;;;;;;4971220;28;20075;-71
2022/07/01 07:18:00;;;;;;;22.55;14.90;;;;;;;;;;4991406;28;20430;-71
2022/07/01 07:20:26;;;;;;;22.52;15.30;;;;;;;;;;4988739;28;20550;-71
2022/07/01 07:22:53;;;;;;;21.52;14.80;;;;;;;;;;4990089;28;20459;-71
2022/07/01 07:25:19;;;;;;;20.05;13.85;;;;;;;;;;4988896;28;20022;-71
2022/07/01 07:27:46;;;;;;;21.17;14.02;;;;;;;;;;4992145;28;20034;-71
2022/07/01 07:30:15;;;;;;;16.45;12.85;;;;;;;;;;4988846;28;20109;-71
2022/07/01 07:32:41;;;;;;;18.25;14.18;;;;;;;;;;4988381;28;20525;-71
2022/07/01 07:35:07;;;;;;;14.63;12.27;;;;;;;;;;5001355;28;20030;-71
2022/07/01 07:37:33;;;;;;;18.83;12.32;;;;;;;;;;4991887;28;20034;-71
2022/07/01 07:40:00;;;;;;;21.73;12.10;;;;;;;;;;4987959;28;20521;-71
2022/07/01 07:42:26;;;;;;;11.38;9.57;;;;;;;;;;4971961;28;20493;-71
2022/07/01 07:44:53;;;;;;;19.67;12.38;;;;;;;;;;4995584;28;20034;-71
2022/07/01 07:47:19;;;;;;;18.20;11.65;;;;;;;;;;4979623;28;20135;-72
2022/07/01 07:49:45;;;;;;;14.45;11.30;;;;;;;;;;4990824;28;20073;-73
2022/07/01 07:52:11;;;;;;;18.10;11.15;;;;;;;;;;4973597;28;20049;-71
2022/07/01 07:54:37;;;;;;;13.23;10.30;;;;;;;;;;4974418;28;20050;-71
2022/07/01 07:57:04;;;;;;;12.73;9.60;;;;;;;;;;4989374;28;20062;-71
2022/07/01 07:59:30;;;;;;;13.32;9.38;;;;;;;;;;4990799;28;20069;-72
2022/07/01 08:01:56;;;;;;;11.32;8.48;;;;;;;;;;4981359;28;20146;-72
2022/07/01 08:04:22;;;;;;;10.70;7.47;;;;;;;;;;4958544;28;20163;-71
2022/07/01 08:06:49;;;;;;;9.13;6.93;;;22.30;99.90;;;;;;4992207;28;20031;-72
2022/07/01 08:09:15;;;;;;;9.25;6.63;;;;;;;;;;4992996;28;20042;-72
2022/07/01 08:11:41;;;;;;;13.65;6.45;;;;;;;;;;4988500;28;20108;-71
2022/07/01 08:14:07;;;;;;;14.10;6.70;;;;;;;;;;4994854;28;20058;-71
2022/07/01 08:16:33;;;;;;;15.95;7.40;;;;;;;;;;4969380;28;20210;-71
2022/07/01 08:18:59;;;;;;;10.70;6.57;;;;;;;;;;4994675;28;20585;-72
2022/07/01 08:21:25;;;;;;;7.85;4.70;;;;;;;;;;4994453;28;20109;-71
2022/07/01 08:23:51;;;;;;;9.48;3.97;;;;;;;;;;4992307;28;20162;-71
2022/07/01 08:26:17;;;;;;;9.88;4.60;;;;;;;;;;4991462;28;20185;-71
2022/07/01 08:28:44;;;;;;;8.07;5.03;;;;;;;;;;4987315;28;20030;-71
2022/07/01 08:31:10;;;;;;;5.68;4.78;;;;;;;;;;4990053;28;20383;-71
2022/07/01 08:33:39;;;;;;;11.00;5.00;;;;;;;;;;4992948;28;20082;-72
2022/07/01 08:36:07;;;;;;;9.75;5.15;;;21.00;99.90;;;;;;5002599;28;20189;-71
2022/07/01 08:38:33;;;;;;;9.77;5.78;;;;;;;;;;4994399;28;20598;-71
2022/07/01 08:41:00;;;;;;;15.15;5.05;;;;;;;;;;4996051;28;20693;-71
2022/07/01 08:43:26;;;;;;;8.95;4.40;;;;;;;;;;4998422;28;20097;-71
2022/07/01 08:45:52;;;;;;;8.73;4.22;;;;;;;;;;4986736;28;20046;-71
2022/07/01 08:48:18;;;;;;;7.18;3.80;;;;;;;;;;4974162;28;20035;-71
2022/07/01 08:50:45;;;;;;;9.95;3.58;;;;;;;;;;4984756;28;20364;-71
2022/07/01 08:53:11;;;;;;;13.73;4.53;;;;;;;;;;4993775;28;20025;-71
2022/07/01 08:58:24;;;;;;;9.63;3.72;;;21.20;99.90;;;;;;4975130;28;20081;-71
2022/07/01 09:00:50;;;;;;;9.05;3.28;;;;;;;;;;4970006;28;20057;-71
2022/07/01 09:03:16;;;;;;;10.35;2.90;;;;;;;;;;4973924;28;20439;-71
2022/07/01 09:05:51;;;;;;;6.88;3.88;;;21.70;99.90;;;;;;4980507;28;20101;-71
2022/07/01 09:08:16;;;;;;;9.02;3.67;;;;;;;;;;5002285;28;20336;-71
2022/07/01 09:10:42;;;;;;;7.35;3.20;;;;;;;;;;4993730;28;20118;-71
2022/07/01 09:13:11;;;;;;;6.72;2.97;;;22.00;99.90;;;;;;4991489;28;20106;-71
2022/07/01 09:15:37;;;;;;;6.70;2.38;;;22.40;99.90;;;;;;4982648;28;20125;-71
2022/07/01 09:18:05;;;;;;;5.15;2.00;;;;;;;;;;4980996;28;20034;-71
2022/07/01 09:20:36;;;;;;;10.65;2.30;;;22.40;99.90;;;;;;4975761;28;20371;-71
2022/07/01 09:23:03;;;;;;;4.97;2.57;;;;;;;;;;4987037;28;20023;-71
2022/07/01 09:25:31;;;;;;;6.13;2.22;;;22.80;99.90;;;;;;4986436;28;20033;-72
2022/07/01 09:28:08;;;;;;;9.57;2.70;;;;;;;;;;4991694;28;20493;-72
2022/07/01 09:30:34;;;;;;;6.15;2.38;;;;;;;;;;4974054;28;20030;-72
2022/07/01 09:33:16;;;;;;;7.00;2.00;;;22.40;99.90;;;;;;4984474;28;20093;-72
2022/07/01 09:35:44;;;;;;;6.25;1.38;;;22.80;99.90;;;;;;4992734;28;20035;-72
2022/07/01 09:38:14;;;;;;;7.53;2.00;;;;;;;;;;4985916;28;20037;-72
2022/07/01 09:40:54;;;;;;;7.53;1.75;;;23.30;99.90;;;;;;4996532;28;20109;-72
2022/07/01 09:43:25;;;;;;;6.03;2.30;;;24.30;99.90;;;;;;4989449;28;20125;-72
2022/07/01 09:45:59;;;;;;;6.97;1.70;;;24.20;99.90;;;;;;4992790;28;20493;-72
2022/07/01 09:48:41;;;;;;;7.28;1.95;;;24.30;99.90;;;;;;4991991;28;20088;-73
2022/07/01 09:51:08;;;;;;;10.35;1.90;;;24.70;99.90;;;;;;4971049;28;20471;-72
2022/07/01 09:53:34;;;;;;;10.15;1.85;;;24.30;99.90;;;;;;4991030;28;20101;-72
2022/07/01 09:56:00;;;;;;;8.65;2.15;;;;;;;;;;4992452;28;20110;-72
2022/07/01 09:58:26;;;;;;;8.98;2.10;;;;;;;;;;4971937;28;20038;-72
2022/07/01 10:00:53;;;;;;;7.20;2.42;;;22.70;99.90;;;;;;4973467;28;20522;-72
2022/07/01 10:03:20;;;;;;;3.30;0.93;;;22.20;99.90;;;;;;4992024;28;20425;-72
2022/07/01 10:05:46;;;;;;;2.75;0.70;;;;;;;;;;4988349;28;20479;-72
2022/07/01 10:08:57;;;;;;;4.95;1.52;;;21.10;99.90;;;;;;4991194;28;20040;-72
2022/07/01 10:11:42;;;;;;;5.72;0.70;;;20.30;99.90;;;;;;4954116;28;20390;-71
2022/07/01 10:14:11;;;;;;;4.80;0.90;;;20.10;99.90;;;;;;4990913;28;20050;-71
2022/07/01 10:16:40;;;;;;;6.35;1.00;;;;;;;;;;4970674;28;20132;-71
2022/07/01 10:19:25;;;;;;;4.60;0.55;;;20.10;99.90;;;;;;4970833;28;20033;-71
2022/07/01 10:21:56;;;;;;;2.22;0.63;;;19.80;99.90;;;;;;4989224;28;20038;-71
2022/07/01 10:24:22;;;;;;;3.33;0.98;;;;;;;;;;4989314;28;20026;-71
2022/07/01 10:26:48;;;;;;;3.08;0.65;;;;;;;;;;4974277;28;20378;-72
2022/07/01 10:29:34;;;;;;;1.70;0.52;;;20.00;99.90;;;;;;4991714;28;20029;-72
2022/07/01 10:32:11;;;;;;;2.55;0.60;;;19.90;99.90;;;;;;4987363;28;20475;-72
2022/07/01 10:34:41;;;;;;;3.42;1.25;;;19.80;99.90;;;;;;4991089;28;20034;-71
2022/07/01 10:37:09;;;;;;;3.70;0.68;;;19.80;99.90;;;;;;4991657;28;20042;-71
2022/07/01 10:39:54;;;;;;;3.83;0.80;;;19.90;99.90;;;;;;4985732;28;20704;-72
2022/07/01 10:42:21;;;;;;;4.55;0.93;;;;;;;;;;4989467;28;20108;-71
2022/07/01 10:45:05;;;;;;;3.05;0.68;;;20.20;99.90;;;;;;4973610;28;20030;-72
2022/07/01 10:47:31;;;;;;;3.88;0.65;;;;;;;;;;4988512;28;20045;-71
2022/07/01 10:49:58;;;;;;;2.88;1.05;;;;;;;;;;4978729;28;20069;-72
2022/07/01 10:52:25;;;;;;;5.53;0.80;;;20.70;99.90;;;;;;4986445;28;20042;-71
2022/07/01 10:54:55;;;;;;;5.15;0.95;;;20.90;99.90;;;;;;4960493;28;20117;-72
2022/07/01 10:57:37;;;;;;;3.75;1.10;;;21.00;99.90;;;;;;4991411;28;20474;-72
2022/07/01 11:00:03;;;;;;;2.42;0.90;;;;;;;;;;4991733;28;20094;-72
2022/07/01 11:02:39;;;;;;;5.72;0.80;;;;;;;;;;4969074;28;20045;-72
2022/07/01 11:05:12;;;;;;;6.60;0.93;;;22.20;99.90;;;;;;4984541;28;20383;-72
2022/07/01 11:07:46;;;;;;;5.13;1.00;;;22.50;99.90;;;;;;4982198;28;20027;-72
2022/07/01 11:10:15;;;;;;;4.30;0.82;;;22.90;99.90;;;;;;4992194;28;20096;-72
2022/07/01 11:12:43;;;;;;;7.95;1.65;;;;;;;;;;4991249;28;20378;-72
2022/07/01 11:15:10;;;;;;;4.13;0.90;;;;;;;;;;4984960;28;20015;-72
2022/07/01 11:17:45;;;;;;;3.03;0.60;;;22.40;99.90;;;;;;4986149;28;20398;-72
2022/07/01 11:20:11;;;;;;;2.20;0.47;;;;;;;;;;4989757;28;20045;-71
2022/07/01 11:22:38;;;;;;;1.52;0.50;;;;;;;;;;4990245;28;20049;-73
2022/07/01 11:25:06;;;;;;;4.32;0.63;;;23.20;99.90;;;;;;4991518;28;20482;-72
2022/07/01 11:27:33;;;;;;;3.65;0.70;;;;;;;;;;4990673;28;20034;-72
2022/07/01 11:30:03;;;;;;;4.75;1.38;;;23.60;99.90;;;;;;4977865;28;20034;-72
2022/07/01 11:32:33;;;;;;;4.32;0.80;;;23.70;99.90;;;;;;4963541;28;20466;-72
2022/07/01 11:35:00;;;;;;;2.83;0.85;;;;;;;;;;4992142;28;20081;-72
2022/07/01 11:40:17;;;;;;;4.90;1.90;;;23.80;99.90;;;;;;4992568;28;20041;-72
2022/07/01 11:42:43;;;;;;;4.28;1.10;;;;;;;;;;4994424;28;20517;-71
2022/07/01 11:45:09;;;;;;;5.25;0.82;;;23.40;99.90;;;;;;4994911;28;20035;-71
2022/07/01 11:47:35;;;;;;;2.80;0.55;;;22.90;99.90;;;;;;4970345;28;20038;-71
2022/07/01 11:50:01;;;;;;;3.67;0.65;;;22.80;99.90;;;;;;4994802;28;20110;-73
2022/07/01 11:52:28;;;;;;;3.58;0.60;;;;;;;;;;4987378;28;20031;-71
2022/07/01 11:54:55;;;;;;;3.88;0.60;;;22.60;99.90;;;;;;4995310;28;20030;-71
2022/07/01 11:57:26;;;;;;;0.77;0.32;;;22.50;99.90;;;;;;4994208;28;20458;-72
2022/07/01 11:59:54;;;;;;;2.37;1.00;;;;;;;;;;4995424;28;20031;-72
2022/07/01 12:02:24;;;;;;;4.78;0.68;;;22.30;99.90;;;;;;4986161;28;20030;-71
2022/07/01 12:04:51;;;;;;;3.65;0.60;;;22.40;99.90;;;;;;4976597;28;20034;-72
2022/07/01 12:07:21;;;;;;;3.70;0.70;;;22.40;99.90;;;;;;4991877;28;20044;-71
2022/07/01 12:09:48;;;;;;;5.18;1.23;;;22.50;99.90;;;;;;4977875;28;20038;-70
2022/07/01 12:12:18;;;;;;;5.55;0.75;;;22.70;99.90;;;;;;4991226;28;20038;-70
2022/07/01 12:14:55;;;;;;;4.22;0.40;;;22.80;99.90;;;;;;4964234;28;20066;-70
2022/07/01 12:17:22;;;;;;;6.07;0.80;;;;;;;;;;4984311;28;20123;-70
2022/07/01 12:19:49;;;;;;;5.13;0.88;;;;;;;;;;4994722;28;20031;-70
2022/07/01 12:22:20;;;;;;;6.45;0.80;;;22.40;99.90;;;;;;4993294;28;20390;-70
2022/07/01 12:24:47;;;;;;;3.33;0.93;;;22.40;99.90;;;;;;4993598;28;20022;-70
2022/07/01 12:27:13;;;;;;;2.30;0.95;;;;;;;;;;4993808;28;20051;-70
2022/07/01 12:29:45;;;;;;;3.97;0.90;;;23.30;99.90;;;;;;4977257;28;20034;-71
2022/07/01 12:32:13;;;;;;;4.03;0.60;;;23.60;99.90;;;;;;4991267;28;20077;-71
2022/07/01 12:34:47;;;;;;;3.38;0.65;;;23.70;99.90;;;;;;4992567;28;20034;-71
2022/07/01 12:37:15;;;;;;;6.20;1.15;;;;;;;;;;4992958;28;20045;-71
2022/07/01 12:39:44;;;;;;;2.85;0.90;;;23.80;99.90;;;;;;4993062;28;20072;-70
2022/07/01 12:42:20;;;;;;;6.63;2.08;;;23.60;99.90;;;;;;4988696;28;20058;-70
2022/07/01 12:44:46;;;;;;;3.40;0.50;;;;;;;;;;4991156;28;20034;-70
2022/07/01 12:47:19;;;;;;;2.13;0.60;;;;;;;;;;4993356;28;20054;-70
2022/07/01 12:49:45;;;;;;;7.30;0.80;;;;;;;;;;4975135;28;20030;-71
2022/07/01 12:52:29;;;;;;;4.45;0.80;;;23.30;99.90;;;;;;4993312;28;20019;-71
2022/07/01 12:54:57;;;;;;;3.33;0.80;;;23.60;99.90;;;;;;4993892;28;20034;-71
2022/07/01 12:57:31;;;;;;;3.13;0.60;;;23.70;99.90;;;;;;4992055;28;20042;-70
2022/07/01 12:59:57;;;;;;;2.97;0.50;;;;;;;;;;4989974;28;20034;-71
2022/07/01 13:02:23;;;;;;;4.40;0.82;;;;;;;;;;4993210;28;20105;-70
2022/07/01 13:04:49;;;;;;;5.75;1.20;;;;;;;;;;4974798;28;20110;-71
2022/07/01 13:07:15;;;;;;;6.60;1.00;;;;;;;;;;4992200;28;20034;-71
2022/07/01 13:09:41;;;;;;;4.13;1.00;;;;;;;;;;4974013;28;20489;-70
2022/07/01 13:12:07;;;;;;;6.30;0.68;;;23.10;99.90;;;;;;4977411;28;20061;-72
2022/07/01 13:14:33;;;;;;;4.55;0.82;;;22.90;99.90;;;;;;4979850;28;20100;-71
2022/07/01 13:16:59;;;;;;;3.60;0.50;;;;;;;;;;4986057;28;20038;-72
2022/07/01 13:19:25;;;;;;;4.85;1.10;;;;;;;;;;4982660;28;20022;-72
2022/07/01 13:21:51;;;;;;;3.85;1.00;;;;;;;;;;4968922;28;20063;-71
2022/07/01 13:24:17;;;;;;;3.17;0.52;;;;;;;;;;4980044;28;20120;-72
2022/07/01 13:26:43;;;;;;;2.92;0.70;;;;;;;;;;4969195;28;20047;-72
2022/07/01 13:29:09;;;;;;;4.95;0.93;;;;;;;;;;4981672;28;20030;-72
2022/07/01 13:31:35;;;;;;;3.65;0.90;;;;;;;;;;4990349;28;20061;-72
2022/07/01 13:34:01;;;;;;;5.00;0.70;;;;;;;;;;4992115;28;20116;-71
2022/07/01 13:36:27;;;;;;;2.92;0.93;;;;;;;;;;4988277;28;20727;-71
2022/07/01 13:38:53;;;;;;;3.92;1.00;;;23.60;99.90;;;;;;4989007;28;20401;-72
2022/07/01 13:41:21;;;;;;;3.55;0.73;;;23.50;99.90;;;;;;4982180;28;20053;-73
2022/07/01 13:43:47;;;;;;;3.20;0.75;;;;;;;;;;4991935;28;20494;-72
2022/07/01 13:46:13;;;;;;;6.70;1.15;;;;;;;;;;4987072;28;20406;-73
2022/07/01 13:48:39;;;;;;;6.07;1.02;;;;;;;;;;4991778;28;20038;-72
2022/07/01 13:51:05;;;;;;;2.40;0.60;;;;;;;;;;4988183;28;20038;-72
2022/07/01 13:53:31;;;;;;;4.03;0.98;;;;;;;;;;4987564;28;20037;-72
2022/07/01 13:55:56;;;;;;;4.53;0.93;;;23.70;99.90;;;;;;4995876;28;20446;-72
2022/07/01 13:58:22;;;;;;;3.28;0.70;;;;;;;;;;4988450;28;20046;-72
2022/07/01 14:00:48;;;;;;;5.07;0.80;;;;;;;;;;4983277;28;20042;-72
2022/07/01 14:03:14;;;;;;;13.65;6.85;;;;;;;;;;4990938;28;20050;-70
2022/07/01 14:05:40;;;;;;;4.53;1.10;;;;;;;;;;4988511;28;20073;-72
2022/07/01 14:08:06;;;;;;;2.78;0.80;;;;;;;;;;4990931;28;20109;-71
2022/07/01 14:10:37;;;;;;;6.90;1.55;;;;;;;;;;4972275;28;20030;-71
2022/07/01 14:13:03;;;;;;;10.65;0.75;;;;;;;;;;4987679;28;20055;-73
2022/07/01 14:15:29;;;;;;;4.72;0.95;;;;;;;;;;4990277;28;20085;-72
2022/07/01 14:17:55;;;;;;;5.63;0.88;;;23.70;99.90;;;;;;4968728;28;20041;-73
2022/07/01 14:20:21;;;;;;;4.65;0.95;;;;;;;;;;5008868;28;20035;-72
2022/07/01 14:22:47;;;;;;;5.68;1.55;;;;;;;;;;4991445;28;20030;-73
2022/07/01 14:25:13;;;;;;;4.15;0.90;;;;;;;;;;4974804;28;20022;-73
2022/07/01 14:27:39;;;;;;;11.57;1.10;;;;;;;;;;4992064;28;20121;-73
2022/07/01 14:30:06;;;;;;;2.65;0.68;;;;;;;;;;4986888;28;20038;-73
2022/07/01 14:32:32;;;;;;;7.05;1.33;;;;;;;;;;4976993;28;20080;-73
2022/07/01 14:34:58;;;;;;;6.53;0.90;;;;;;;;;;4987324;28;20030;-73